sensor_id;sensor_type;location;lat;lon;timestamp;temperature;humidity
81266;DHT22;70748;52.510;13.410;2023-08-17T00:01:26;21.80;68.40
81266;DHT22;70748;52.510;13.410;2023-08-17T00:03:51;21.80;67.70
81266;DHT22;70748;52.510;13.410;2023-08-17T00:06:17;21.80;67.60
81266;DHT22;70748;52.510;13.410;2023-08-17T00:08:43;21.80;68.10
81266;DHT22;70748;52.510;13.410;2023-08-17T00:11:09;21.70;68.10
81266;DHT22;70748;52.510;13.410;2023-08-17T00:13:35;21.80;68.10
81266;DHT22;70748;52.510;13.410;2023-08-17T00:16:01;21.70;68.30
81266;DHT22;70748;52.510;13.410;2023-08-17T00:18:27;21.70;68.30
81266;DHT22;70748;52.510;13.410;2023-08-17T00:20:53;21.60;68.40
81266;DHT22;70748;52.510;13.410;2023-08-17T00:23:18;21.60;68.60
81266;DHT22;70748;52.510;13.410;2023-08-17T00:25:46;21.60;68.80
81266;DHT22;70748;52.510;13.410;2023-08-17T00:28:13;21.60;68.50
81266;DHT22;70748;52.510;13.410;2023-08-17T00:30:39;21.60;68.10
81266;DHT22;70748;52.510;13.410;2023-08-17T00:33:05;21.70;68.10
81266;DHT22;70748;52.510;13.410;2023-08-17T00:35:30;21.60;68.40
81266;DHT22;70748;52.510;13.410;2023-08-17T00:37:56;21.50;68.60
81266;DHT22;70748;52.510;13.410;2023-08-17T00:40:22;21.50;69.00
81266;DHT22;70748;52.510;13.410;2023-08-17T00:42:47;21.40;69.00
81266;DHT22;70748;52.510;13.410;2023-08-17T00:45:15;21.30;69.50
81266;DHT22;70748;52.510;13.410;2023-08-17T00:47:41;21.30;69.60
81266;DHT22;70748;52.510;13.410;2023-08-17T00:50:07;21.30;69.50
81266;DHT22;70748;52.510;13.410;2023-08-17T00:52:33;21.30;69.80
81266;DHT22;70748;52.510;13.410;2023-08-17T00:55:00;21.20;69.70
81266;DHT22;70748;52.510;13.410;2023-08-17T00:57:29;21.20;69.90
81266;DHT22;70748;52.510;13.410;2023-08-17T00:59:55;21.10;70.00
81266;DHT22;70748;52.510;13.410;2023-08-17T01:02:21;21.10;70.00
81266;DHT22;70748;52.510;13.410;2023-08-17T01:04:47;21.10;70.10
81266;DHT22;70748;52.510;13.410;2023-08-17T01:07:12;21.10;70.30
81266;DHT22;70748;52.510;13.410;2023-08-17T01:09:38;21.00;70.20
81266;DHT22;70748;52.510;13.410;2023-08-17T01:12:29;21.10;70.20
81266;DHT22;70748;52.510;13.410;2023-08-17T01:15:14;21.10;70.40
81266;DHT22;70748;52.510;13.410;2023-08-17T01:17:52;21.00;70.10
81266;DHT22;70748;52.510;13.410;2023-08-17T01:20:19;21.00;70.00
81266;DHT22;70748;52.510;13.410;2023-08-17T01:22:49;21.00;69.80
81266;DHT22;70748;52.510;13.410;2023-08-17T01:25:15;21.00;70.00
81266;DHT22;70748;52.510;13.410;2023-08-17T01:27:44;21.00;70.00
81266;DHT22;70748;52.510;13.410;2023-08-17T01:30:10;21.00;70.00
81266;DHT22;70748;52.510;13.410;2023-08-17T01:32:54;21.00;69.60
81266;DHT22;70748;52.510;13.410;2023-08-17T01:35:31;21.00;69.70
81266;DHT22;70748;52.510;13.410;2023-08-17T01:37:59;20.90;70.10
81266;DHT22;70748;52.510;13.410;2023-08-17T01:40:31;20.90;69.90
81266;DHT22;70748;52.510;13.410;2023-08-17T01:42:58;20.90;70.00
81266;DHT22;70748;52.510;13.410;2023-08-17T01:45:24;20.80;71.40
81266;DHT22;70748;52.510;13.410;2023-08-17T01:47:51;20.80;70.30
81266;DHT22;70748;52.510;13.410;2023-08-17T01:50:16;20.90;69.80
81266;DHT22;70748;52.510;13.410;2023-08-17T01:52:42;20.90;70.00
81266;DHT22;70748;52.510;13.410;2023-08-17T01:55:08;20.90;69.90
81266;DHT22;70748;52.510;13.410;2023-08-17T01:57:34;20.80;70.40
81266;DHT22;70748;52.510;13.410;2023-08-17T02:00:01;20.80;70.40
81266;DHT22;70748;52.510;13.410;2023-08-17T02:02:26;20.80;70.30
81266;DHT22;70748;52.510;13.410;2023-08-17T02:04:52;20.70;70.70
81266;DHT22;70748;52.510;13.410;2023-08-17T02:07:18;20.80;70.50
81266;DHT22;70748;52.510;13.410;2023-08-17T02:09:43;20.60;70.70
81266;DHT22;70748;52.510;13.410;2023-08-17T02:12:09;20.70;71.00
81266;DHT22;70748;52.510;13.410;2023-08-17T02:14:35;20.70;70.50
81266;DHT22;70748;52.510;13.410;2023-08-17T02:17:00;20.70;70.90
81266;DHT22;70748;52.510;13.410;2023-08-17T02:19:26;20.60;71.10
81266;DHT22;70748;52.510;13.410;2023-08-17T02:21:51;20.60;70.90
81266;DHT22;70748;52.510;13.410;2023-08-17T02:24:17;20.60;71.30
81266;DHT22;70748;52.510;13.410;2023-08-17T02:26:43;20.50;71.60
81266;DHT22;70748;52.510;13.410;2023-08-17T02:29:08;20.50;71.70
81266;DHT22;70748;52.510;13.410;2023-08-17T02:31:34;20.60;71.50
81266;DHT22;70748;52.510;13.410;2023-08-17T02:33:59;20.50;71.40
81266;DHT22;70748;52.510;13.410;2023-08-17T02:36:31;20.50;71.50
81266;DHT22;70748;52.510;13.410;2023-08-17T02:38:56;20.50;71.20
81266;DHT22;70748;52.510;13.410;2023-08-17T02:41:22;20.50;71.00
81266;DHT22;70748;52.510;13.410;2023-08-17T02:43:48;20.50;71.40
81266;DHT22;70748;52.510;13.410;2023-08-17T02:46:13;20.50;71.00
81266;DHT22;70748;52.510;13.410;2023-08-17T02:48:39;20.40;71.30
81266;DHT22;70748;52.510;13.410;2023-08-17T02:51:04;20.40;71.40
81266;DHT22;70748;52.510;13.410;2023-08-17T02:53:30;20.40;71.40
81266;DHT22;70748;52.510;13.410;2023-08-17T02:55:56;20.40;71.10
81266;DHT22;70748;52.510;13.410;2023-08-17T02:58:21;20.40;71.40
81266;DHT22;70748;52.510;13.410;2023-08-17T03:00:47;20.50;71.20
81266;DHT22;70748;52.510;13.410;2023-08-17T03:03:13;20.40;71.00
81266;DHT22;70748;52.510;13.410;2023-08-17T03:05:38;20.40;71.00
81266;DHT22;70748;52.510;13.410;2023-08-17T03:08:04;20.40;71.10
81266;DHT22;70748;52.510;13.410;2023-08-17T03:10:30;20.40;70.90
81266;DHT22;70748;52.510;13.410;2023-08-17T03:12:56;20.30;71.20
81266;DHT22;70748;52.510;13.410;2023-08-17T03:15:22;20.20;71.20
81266;DHT22;70748;52.510;13.410;2023-08-17T03:17:47;20.30;71.10
81266;DHT22;70748;52.510;13.410;2023-08-17T03:20:13;20.30;70.60
81266;DHT22;70748;52.510;13.410;2023-08-17T03:22:38;20.40;70.40
81266;DHT22;70748;52.510;13.410;2023-08-17T03:25:04;20.40;70.40
81266;DHT22;70748;52.510;13.410;2023-08-17T03:27:30;20.30;70.60
81266;DHT22;70748;52.510;13.410;2023-08-17T03:29:56;20.30;70.30
81266;DHT22;70748;52.510;13.410;2023-08-17T03:32:21;20.30;70.30
81266;DHT22;70748;52.510;13.410;2023-08-17T03:34:47;20.40;70.20
81266;DHT22;70748;52.510;13.410;2023-08-17T03:37:13;20.30;70.10
81266;DHT22;70748;52.510;13.410;2023-08-17T03:39:38;20.40;70.20
81266;DHT22;70748;52.510;13.410;2023-08-17T03:42:04;20.30;70.10
81266;DHT22;70748;52.510;13.410;2023-08-17T03:44:30;20.30;69.80
81266;DHT22;70748;52.510;13.410;2023-08-17T03:46:55;20.20;70.00
81266;DHT22;70748;52.510;13.410;2023-08-17T03:49:21;20.20;69.80
81266;DHT22;70748;52.510;13.410;2023-08-17T03:51:47;20.40;69.40
81266;DHT22;70748;52.510;13.410;2023-08-17T03:54:13;20.40;69.30
81266;DHT22;70748;52.510;13.410;2023-08-17T03:56:38;20.40;69.40
81266;DHT22;70748;52.510;13.410;2023-08-17T03:59:04;20.30;69.20
81266;DHT22;70748;52.510;13.410;2023-08-17T04:01:30;20.30;69.00
81266;DHT22;70748;52.510;13.410;2023-08-17T04:03:56;20.30;69.00
81266;DHT22;70748;52.510;13.410;2023-08-17T04:06:22;20.40;68.90
81266;DHT22;70748;52.510;13.410;2023-08-17T04:08:48;20.40;68.30
81266;DHT22;70748;52.510;13.410;2023-08-17T04:11:13;20.40;68.40
81266;DHT22;70748;52.510;13.410;2023-08-17T04:13:39;20.50;68.10
81266;DHT22;70748;52.510;13.410;2023-08-17T04:16:04;20.50;68.00
81266;DHT22;70748;52.510;13.410;2023-08-17T04:18:30;20.40;68.40
81266;DHT22;70748;52.510;13.410;2023-08-17T04:20:56;20.40;68.00
81266;DHT22;70748;52.510;13.410;2023-08-17T04:23:21;20.50;67.80
81266;DHT22;70748;52.510;13.410;2023-08-17T04:25:47;20.50;67.40
81266;DHT22;70748;52.510;13.410;2023-08-17T04:28:14;20.50;67.50
81266;DHT22;70748;52.510;13.410;2023-08-17T04:30:39;20.50;67.30
81266;DHT22;70748;52.510;13.410;2023-08-17T04:33:05;20.60;67.30
81266;DHT22;70748;52.510;13.410;2023-08-17T04:35:33;20.60;67.30
81266;DHT22;70748;52.510;13.410;2023-08-17T04:37:59;20.50;67.50
81266;DHT22;70748;52.510;13.410;2023-08-17T04:40:25;20.50;67.10
81266;DHT22;70748;52.510;13.410;2023-08-17T04:42:51;20.60;67.10
81266;DHT22;70748;52.510;13.410;2023-08-17T04:45:16;20.70;67.40
81266;DHT22;70748;52.510;13.410;2023-08-17T04:47:42;20.70;66.90
81266;DHT22;70748;52.510;13.410;2023-08-17T04:50:08;20.70;67.10
81266;DHT22;70748;52.510;13.410;2023-08-17T04:52:34;20.80;66.50
81266;DHT22;70748;52.510;13.410;2023-08-17T04:54:59;20.80;65.80
81266;DHT22;70748;52.510;13.410;2023-08-17T04:57:25;21.10;64.50
81266;DHT22;70748;52.510;13.410;2023-08-17T04:59:51;21.20;64.70
81266;DHT22;70748;52.510;13.410;2023-08-17T05:02:17;21.20;64.10
81266;DHT22;70748;52.510;13.410;2023-08-17T05:04:43;21.30;64.60
81266;DHT22;70748;52.510;13.410;2023-08-17T05:07:09;21.40;64.00
81266;DHT22;70748;52.510;13.410;2023-08-17T05:09:35;21.30;63.80
81266;DHT22;70748;52.510;13.410;2023-08-17T05:12:00;21.30;64.10
81266;DHT22;70748;52.510;13.410;2023-08-17T05:14:26;21.40;63.70
81266;DHT22;70748;52.510;13.410;2023-08-17T05:16:52;21.40;63.60
81266;DHT22;70748;52.510;13.410;2023-08-17T05:19:17;21.50;63.60
81266;DHT22;70748;52.510;13.410;2023-08-17T05:21:43;21.50;63.00
81266;DHT22;70748;52.510;13.410;2023-08-17T05:24:09;21.60;63.30
81266;DHT22;70748;52.510;13.410;2023-08-17T05:26:34;21.50;63.50
81266;DHT22;70748;52.510;13.410;2023-08-17T05:29:00;21.60;63.10
81266;DHT22;70748;52.510;13.410;2023-08-17T05:31:26;21.70;62.40
81266;DHT22;70748;52.510;13.410;2023-08-17T05:33:51;21.60;62.90
81266;DHT22;70748;52.510;13.410;2023-08-17T05:36:17;21.70;62.30
81266;DHT22;70748;52.510;13.410;2023-08-17T05:38:43;21.80;62.20
81266;DHT22;70748;52.510;13.410;2023-08-17T05:41:08;21.90;62.00
81266;DHT22;70748;52.510;13.410;2023-08-17T05:43:34;22.00;62.20
81266;DHT22;70748;52.510;13.410;2023-08-17T05:46:00;22.00;62.10
81266;DHT22;70748;52.510;13.410;2023-08-17T05:48:26;21.90;62.40
81266;DHT22;70748;52.510;13.410;2023-08-17T05:50:51;22.00;61.70
81266;DHT22;70748;52.510;13.410;2023-08-17T05:53:17;22.00;61.30
81266;DHT22;70748;52.510;13.410;2023-08-17T05:55:43;22.20;60.70
81266;DHT22;70748;52.510;13.410;2023-08-17T05:58:08;22.30;60.30
81266;DHT22;70748;52.510;13.410;2023-08-17T06:00:34;22.40;60.20
81266;DHT22;70748;52.510;13.410;2023-08-17T06:03:00;22.40;59.80
81266;DHT22;70748;52.510;13.410;2023-08-17T06:05:30;22.50;59.80
81266;DHT22;70748;52.510;13.410;2023-08-17T06:07:56;22.40;61.00
81266;DHT22;70748;52.510;13.410;2023-08-17T06:10:23;22.40;62.00
81266;DHT22;70748;52.510;13.410;2023-08-17T06:12:55;22.40;63.00
81266;DHT22;70748;52.510;13.410;2023-08-17T06:15:22;22.30;62.30
81266;DHT22;70748;52.510;13.410;2023-08-17T06:17:48;22.10;61.90
81266;DHT22;70748;52.510;13.410;2023-08-17T06:20:17;22.10;62.50
81266;DHT22;70748;52.510;13.410;2023-08-17T06:22:43;22.00;63.30
81266;DHT22;70748;52.510;13.410;2023-08-17T06:25:09;22.10;63.50
81266;DHT22;70748;52.510;13.410;2023-08-17T06:27:35;22.10;63.90
81266;DHT22;70748;52.510;13.410;2023-08-17T06:30:05;22.10;64.20
81266;DHT22;70748;52.510;13.410;2023-08-17T06:32:31;22.10;64.30
81266;DHT22;70748;52.510;13.410;2023-08-17T06:34:57;22.10;64.20
81266;DHT22;70748;52.510;13.410;2023-08-17T06:37:23;22.20;64.80
81266;DHT22;70748;52.510;13.410;2023-08-17T06:39:49;22.20;64.20
81266;DHT22;70748;52.510;13.410;2023-08-17T06:42:14;22.30;64.50
81266;DHT22;70748;52.510;13.410;2023-08-17T06:44:40;22.50;62.00
81266;DHT22;70748;52.510;13.410;2023-08-17T06:47:05;22.50;63.10
81266;DHT22;70748;52.510;13.410;2023-08-17T06:49:31;22.50;64.40
81266;DHT22;70748;52.510;13.410;2023-08-17T06:51:57;22.50;63.70
81266;DHT22;70748;52.510;13.410;2023-08-17T06:54:23;22.50;64.00
81266;DHT22;70748;52.510;13.410;2023-08-17T06:56:48;22.70;64.60
81266;DHT22;70748;52.510;13.410;2023-08-17T06:59:14;22.80;64.60
81266;DHT22;70748;52.510;13.410;2023-08-17T07:01:39;22.70;64.30
81266;DHT22;70748;52.510;13.410;2023-08-17T07:04:05;22.70;62.70
81266;DHT22;70748;52.510;13.410;2023-08-17T07:06:31;22.70;62.20
81266;DHT22;70748;52.510;13.410;2023-08-17T07:08:56;22.70;61.90
81266;DHT22;70748;52.510;13.410;2023-08-17T07:11:22;22.80;61.00
81266;DHT22;70748;52.510;13.410;2023-08-17T07:13:48;23.00;60.70
81266;DHT22;70748;52.510;13.410;2023-08-17T07:16:13;23.10;60.40
81266;DHT22;70748;52.510;13.410;2023-08-17T07:18:39;23.20;60.00
81266;DHT22;70748;52.510;13.410;2023-08-17T07:21:05;23.30;59.10
81266;DHT22;70748;52.510;13.410;2023-08-17T07:23:31;23.30;59.00
81266;DHT22;70748;52.510;13.410;2023-08-17T07:25:57;23.30;60.40
81266;DHT22;70748;52.510;13.410;2023-08-17T07:28:22;23.30;59.40
81266;DHT22;70748;52.510;13.410;2023-08-17T07:30:48;23.30;59.80
81266;DHT22;70748;52.510;13.410;2023-08-17T07:33:14;23.40;58.90
81266;DHT22;70748;52.510;13.410;2023-08-17T07:35:39;23.50;58.90
81266;DHT22;70748;52.510;13.410;2023-08-17T07:38:05;23.60;58.90
81266;DHT22;70748;52.510;13.410;2023-08-17T07:40:31;23.50;58.50
81266;DHT22;70748;52.510;13.410;2023-08-17T07:42:57;23.50;58.60
81266;DHT22;70748;52.510;13.410;2023-08-17T07:45:22;23.40;58.70
81266;DHT22;70748;52.510;13.410;2023-08-17T07:47:48;23.40;59.70
81266;DHT22;70748;52.510;13.410;2023-08-17T07:50:13;23.50;59.10
81266;DHT22;70748;52.510;13.410;2023-08-17T07:52:39;23.40;59.30
81266;DHT22;70748;52.510;13.410;2023-08-17T07:55:05;23.60;59.00
81266;DHT22;70748;52.510;13.410;2023-08-17T07:57:31;23.70;58.90
81266;DHT22;70748;52.510;13.410;2023-08-17T07:59:56;23.90;58.60
81266;DHT22;70748;52.510;13.410;2023-08-17T08:02:22;24.10;57.60
81266;DHT22;70748;52.510;13.410;2023-08-17T08:04:47;24.40;56.20
81266;DHT22;70748;52.510;13.410;2023-08-17T08:07:13;24.70;56.40
81266;DHT22;70748;52.510;13.410;2023-08-17T08:09:39;24.60;56.10
81266;DHT22;70748;52.510;13.410;2023-08-17T08:12:05;24.80;56.30
81266;DHT22;70748;52.510;13.410;2023-08-17T08:14:31;25.00;56.10
81266;DHT22;70748;52.510;13.410;2023-08-17T08:16:56;25.20;55.70
81266;DHT22;70748;52.510;13.410;2023-08-17T08:19:22;25.50;54.50
81266;DHT22;70748;52.510;13.410;2023-08-17T08:21:48;26.40;55.00
81266;DHT22;70748;52.510;13.410;2023-08-17T08:24:14;28.20;49.70
81266;DHT22;70748;52.510;13.410;2023-08-17T08:26:39;29.70;45.80
81266;DHT22;70748;52.510;13.410;2023-08-17T08:29:05;31.10;43.90
81266;DHT22;70748;52.510;13.410;2023-08-17T08:31:31;32.20;40.10
81266;DHT22;70748;52.510;13.410;2023-08-17T08:33:57;31.90;40.00
81266;DHT22;70748;52.510;13.410;2023-08-17T08:36:24;31.70;40.80
81266;DHT22;70748;52.510;13.410;2023-08-17T08:38:50;31.60;40.90
81266;DHT22;70748;52.510;13.410;2023-08-17T08:41:16;31.10;41.30
81266;DHT22;70748;52.510;13.410;2023-08-17T08:43:42;30.80;42.60
81266;DHT22;70748;52.510;13.410;2023-08-17T08:46:08;30.60;43.20
81266;DHT22;70748;52.510;13.410;2023-08-17T08:48:35;30.40;43.60
81266;DHT22;70748;52.510;13.410;2023-08-17T08:51:03;30.10;43.90
81266;DHT22;70748;52.510;13.410;2023-08-17T08:53:37;29.30;45.50
81266;DHT22;70748;52.510;13.410;2023-08-17T08:56:04;28.80;46.20
81266;DHT22;70748;52.510;13.410;2023-08-17T08:58:33;28.10;48.30
81266;DHT22;70748;52.510;13.410;2023-08-17T09:01:00;27.60;49.20
81266;DHT22;70748;52.510;13.410;2023-08-17T09:03:26;27.20;50.10
81266;DHT22;70748;52.510;13.410;2023-08-17T09:05:52;26.40;52.30
81266;DHT22;70748;52.510;13.410;2023-08-17T09:08:24;26.20;53.40
81266;DHT22;70748;52.510;13.410;2023-08-17T09:10:52;25.90;54.10
81266;DHT22;70748;52.510;13.410;2023-08-17T09:13:18;25.60;55.30
81266;DHT22;70748;52.510;13.410;2023-08-17T09:15:43;25.40;55.60
81266;DHT22;70748;52.510;13.410;2023-08-17T09:18:10;25.30;56.00
81266;DHT22;70748;52.510;13.410;2023-08-17T09:23:03;25.10;57.80
81266;DHT22;70748;52.510;13.410;2023-08-17T09:25:31;24.90;58.70
81266;DHT22;70748;52.510;13.410;2023-08-17T09:27:59;25.00;59.30
81266;DHT22;70748;52.510;13.410;2023-08-17T09:30:33;25.20;58.60
81266;DHT22;70748;52.510;13.410;2023-08-17T09:33:02;25.50;57.40
81266;DHT22;70748;52.510;13.410;2023-08-17T09:35:31;25.70;56.60
81266;DHT22;70748;52.510;13.410;2023-08-17T09:37:57;25.70;56.60
81266;DHT22;70748;52.510;13.410;2023-08-17T09:40:26;26.10;55.50
81266;DHT22;70748;52.510;13.410;2023-08-17T09:42:52;26.20;54.70
81266;DHT22;70748;52.510;13.410;2023-08-17T09:45:19;26.30;55.40
81266;DHT22;70748;52.510;13.410;2023-08-17T09:47:46;26.50;54.10
81266;DHT22;70748;52.510;13.410;2023-08-17T09:50:11;26.70;54.50
81266;DHT22;70748;52.510;13.410;2023-08-17T09:52:38;27.00;53.90
81266;DHT22;70748;52.510;13.410;2023-08-17T09:55:06;27.30;52.80
81266;DHT22;70748;52.510;13.410;2023-08-17T09:57:33;27.50;51.80
81266;DHT22;70748;52.510;13.410;2023-08-17T09:59:59;27.80;51.60
81266;DHT22;70748;52.510;13.410;2023-08-17T10:02:26;28.20;50.10
81266;DHT22;70748;52.510;13.410;2023-08-17T10:04:55;28.40;49.80
81266;DHT22;70748;52.510;13.410;2023-08-17T10:07:29;28.30;50.20
81266;DHT22;70748;52.510;13.410;2023-08-17T10:10:05;28.20;50.70
81266;DHT22;70748;52.510;13.410;2023-08-17T10:12:36;28.20;50.80
81266;DHT22;70748;52.510;13.410;2023-08-17T10:15:05;28.00;50.70
81266;DHT22;70748;52.510;13.410;2023-08-17T10:17:41;27.60;52.30
81266;DHT22;70748;52.510;13.410;2023-08-17T10:20:09;27.10;53.30
81266;DHT22;70748;52.510;13.410;2023-08-17T10:25:06;26.70;54.20
81266;DHT22;70748;52.510;13.410;2023-08-17T10:27:34;26.60;54.70
81266;DHT22;70748;52.510;13.410;2023-08-17T10:30:01;26.50;54.90
81266;DHT22;70748;52.510;13.410;2023-08-17T10:32:27;26.40;55.10
81266;DHT22;70748;52.510;13.410;2023-08-17T10:34:54;26.60;55.60
81266;DHT22;70748;52.510;13.410;2023-08-17T10:37:20;26.90;54.50
81266;DHT22;70748;52.510;13.410;2023-08-17T10:39:47;27.20;55.50
81266;DHT22;70748;52.510;13.410;2023-08-17T10:42:13;28.40;51.60
81266;DHT22;70748;52.510;13.410;2023-08-17T10:44:48;29.30;49.40
81266;DHT22;70748;52.510;13.410;2023-08-17T10:47:30;29.90;47.60
81266;DHT22;70748;52.510;13.410;2023-08-17T10:52:31;30.80;45.00
81266;DHT22;70748;52.510;13.410;2023-08-17T10:55:05;31.70;43.70
81266;DHT22;70748;52.510;13.410;2023-08-17T11:02:39;35.50;37.40
81266;DHT22;70748;52.510;13.410;2023-08-17T11:05:05;36.30;35.60
81266;DHT22;70748;52.510;13.410;2023-08-17T11:07:44;37.00;34.20
81266;DHT22;70748;52.510;13.410;2023-08-17T11:12:45;37.90;32.50
81266;DHT22;70748;52.510;13.410;2023-08-17T11:15:10;38.40;32.80
81266;DHT22;70748;52.510;13.410;2023-08-17T11:17:36;39.00;32.10
81266;DHT22;70748;52.510;13.410;2023-08-17T11:20:02;38.80;30.70
81266;DHT22;70748;52.510;13.410;2023-08-17T11:22:29;37.60;32.50
81266;DHT22;70748;52.510;13.410;2023-08-17T11:24:54;37.60;32.10
81266;DHT22;70748;52.510;13.410;2023-08-17T11:27:21;37.00;33.90
81266;DHT22;70748;52.510;13.410;2023-08-17T11:29:47;36.50;34.50
81266;DHT22;70748;52.510;13.410;2023-08-17T11:32:16;35.90;35.80
81266;DHT22;70748;52.510;13.410;2023-08-17T11:34:42;35.40;35.90
81266;DHT22;70748;52.510;13.410;2023-08-17T11:37:08;33.90;38.10
81266;DHT22;70748;52.510;13.410;2023-08-17T11:39:36;33.20;39.90
81266;DHT22;70748;52.510;13.410;2023-08-17T11:42:02;32.50;41.00
81266;DHT22;70748;52.510;13.410;2023-08-17T11:44:27;31.90;43.60
81266;DHT22;70748;52.510;13.410;2023-08-17T11:46:53;31.40;44.20
81266;DHT22;70748;52.510;13.410;2023-08-17T11:49:19;31.00;46.20
81266;DHT22;70748;52.510;13.410;2023-08-17T11:51:44;30.60;45.60
81266;DHT22;70748;52.510;13.410;2023-08-17T11:54:10;30.20;46.50
81266;DHT22;70748;52.510;13.410;2023-08-17T11:56:37;30.10;47.60
81266;DHT22;70748;52.510;13.410;2023-08-17T11:59:09;30.00;48.30
81266;DHT22;70748;52.510;13.410;2023-08-17T12:01:37;31.30;46.10
81266;DHT22;70748;52.510;13.410;2023-08-17T12:04:06;32.50;43.80
81266;DHT22;70748;52.510;13.410;2023-08-17T12:06:32;32.40;42.20
81266;DHT22;70748;52.510;13.410;2023-08-17T12:08:58;33.50;42.50
81266;DHT22;70748;52.510;13.410;2023-08-17T12:11:24;34.80;38.40
81266;DHT22;70748;52.510;13.410;2023-08-17T12:13:53;35.10;39.10
81266;DHT22;70748;52.510;13.410;2023-08-17T12:16:20;36.40;38.30
81266;DHT22;70748;52.510;13.410;2023-08-17T12:18:50;37.90;35.90
81266;DHT22;70748;52.510;13.410;2023-08-17T12:21:16;38.60;32.30
81266;DHT22;70748;52.510;13.410;2023-08-17T12:23:42;38.50;33.10
81266;DHT22;70748;52.510;13.410;2023-08-17T12:26:18;38.20;32.40
81266;DHT22;70748;52.510;13.410;2023-08-17T12:28:44;37.50;34.80
81266;DHT22;70748;52.510;13.410;2023-08-17T12:31:10;36.30;35.90
81266;DHT22;70748;52.510;13.410;2023-08-17T12:33:35;35.60;38.30
81266;DHT22;70748;52.510;13.410;2023-08-17T12:36:01;36.00;37.90
81266;DHT22;70748;52.510;13.410;2023-08-17T12:38:27;36.50;36.00
81266;DHT22;70748;52.510;13.410;2023-08-17T12:40:53;36.30;36.30
81266;DHT22;70748;52.510;13.410;2023-08-17T12:43:19;36.20;37.40
81266;DHT22;70748;52.510;13.410;2023-08-17T12:45:44;37.00;35.60
81266;DHT22;70748;52.510;13.410;2023-08-17T12:48:10;36.60;35.10
81266;DHT22;70748;52.510;13.410;2023-08-17T12:50:35;36.60;36.00
81266;DHT22;70748;52.510;13.410;2023-08-17T12:53:01;36.90;36.40
81266;DHT22;70748;52.510;13.410;2023-08-17T12:55:27;38.10;33.50
81266;DHT22;70748;52.510;13.410;2023-08-17T12:57:52;38.40;32.40
81266;DHT22;70748;52.510;13.410;2023-08-17T13:00:18;37.80;34.00
81266;DHT22;70748;52.510;13.410;2023-08-17T13:02:44;37.80;33.80
81266;DHT22;70748;52.510;13.410;2023-08-17T13:05:12;38.40;31.90
81266;DHT22;70748;52.510;13.410;2023-08-17T13:07:37;37.30;32.80
81266;DHT22;70748;52.510;13.410;2023-08-17T13:10:03;35.90;36.20
81266;DHT22;70748;52.510;13.410;2023-08-17T13:12:29;35.00;37.60
81266;DHT22;70748;52.510;13.410;2023-08-17T13:14:55;34.40;40.60
81266;DHT22;70748;52.510;13.410;2023-08-17T13:17:20;33.90;41.10
81266;DHT22;70748;52.510;13.410;2023-08-17T13:19:46;33.40;41.20
81266;DHT22;70748;52.510;13.410;2023-08-17T13:22:11;33.00;42.60
81266;DHT22;70748;52.510;13.410;2023-08-17T13:24:37;32.40;42.80
81266;DHT22;70748;52.510;13.410;2023-08-17T13:27:03;32.00;45.00
81266;DHT22;70748;52.510;13.410;2023-08-17T13:29:29;31.80;45.20
81266;DHT22;70748;52.510;13.410;2023-08-17T13:31:55;31.50;45.40
81266;DHT22;70748;52.510;13.410;2023-08-17T13:34:20;31.20;45.60
81266;DHT22;70748;52.510;13.410;2023-08-17T13:36:46;30.70;47.00
81266;DHT22;70748;52.510;13.410;2023-08-17T13:39:12;30.50;48.40
81266;DHT22;70748;52.510;13.410;2023-08-17T13:41:38;30.50;48.60
81266;DHT22;70748;52.510;13.410;2023-08-17T13:44:03;30.40;48.40
81266;DHT22;70748;52.510;13.410;2023-08-17T13:46:29;30.40;47.80
81266;DHT22;70748;52.510;13.410;2023-08-17T13:48:55;30.30;48.60
81266;DHT22;70748;52.510;13.410;2023-08-17T13:51:20;30.00;49.30
81266;DHT22;70748;52.510;13.410;2023-08-17T13:53:46;30.00;49.40
81266;DHT22;70748;52.510;13.410;2023-08-17T13:56:12;30.00;49.00
81266;DHT22;70748;52.510;13.410;2023-08-17T13:58:37;29.90;49.40
81266;DHT22;70748;52.510;13.410;2023-08-17T14:01:03;29.80;49.90
81266;DHT22;70748;52.510;13.410;2023-08-17T14:03:29;29.80;49.30
81266;DHT22;70748;52.510;13.410;2023-08-17T14:05:55;29.70;50.80
81266;DHT22;70748;52.510;13.410;2023-08-17T14:08:21;29.60;49.60
81266;DHT22;70748;52.510;13.410;2023-08-17T14:10:47;29.70;52.30
81266;DHT22;70748;52.510;13.410;2023-08-17T14:13:12;30.00;49.50
81266;DHT22;70748;52.510;13.410;2023-08-17T14:15:38;29.80;49.20
81266;DHT22;70748;52.510;13.410;2023-08-17T14:18:04;29.80;49.30
81266;DHT22;70748;52.510;13.410;2023-08-17T14:20:29;29.70;50.40
81266;DHT22;70748;52.510;13.410;2023-08-17T14:22:55;29.70;49.90
81266;DHT22;70748;52.510;13.410;2023-08-17T14:25:21;29.70;51.20
81266;DHT22;70748;52.510;13.410;2023-08-17T14:27:47;29.60;50.60
81266;DHT22;70748;52.510;13.410;2023-08-17T14:30:13;29.50;51.00
81266;DHT22;70748;52.510;13.410;2023-08-17T14:32:38;29.50;50.00
81266;DHT22;70748;52.510;13.410;2023-08-17T14:35:04;29.40;50.20
81266;DHT22;70748;52.510;13.410;2023-08-17T14:37:30;29.10;50.70
81266;DHT22;70748;52.510;13.410;2023-08-17T14:39:55;28.70;52.30
81266;DHT22;70748;52.510;13.410;2023-08-17T14:42:21;28.70;52.60
81266;DHT22;70748;52.510;13.410;2023-08-17T14:44:48;28.60;52.70
81266;DHT22;70748;52.510;13.410;2023-08-17T14:47:14;28.90;53.20
81266;DHT22;70748;52.510;13.410;2023-08-17T14:49:39;29.10;52.60
81266;DHT22;70748;52.510;13.410;2023-08-17T14:52:05;29.30;52.20
81266;DHT22;70748;52.510;13.410;2023-08-17T14:54:31;29.60;51.60
81266;DHT22;70748;52.510;13.410;2023-08-17T14:56:56;29.80;50.70
81266;DHT22;70748;52.510;13.410;2023-08-17T14:59:22;29.80;50.70
81266;DHT22;70748;52.510;13.410;2023-08-17T15:01:48;29.70;50.50
81266;DHT22;70748;52.510;13.410;2023-08-17T15:04:14;29.40;51.10
81266;DHT22;70748;52.510;13.410;2023-08-17T15:06:40;29.30;52.00
81266;DHT22;70748;52.510;13.410;2023-08-17T15:09:06;29.20;51.70
81266;DHT22;70748;52.510;13.410;2023-08-17T15:11:31;29.20;51.80
81266;DHT22;70748;52.510;13.410;2023-08-17T15:13:57;29.20;51.70
81266;DHT22;70748;52.510;13.410;2023-08-17T15:16:23;29.20;52.60
81266;DHT22;70748;52.510;13.410;2023-08-17T15:18:53;29.00;52.60
81266;DHT22;70748;52.510;13.410;2023-08-17T15:21:19;28.80;52.90
81266;DHT22;70748;52.510;13.410;2023-08-17T15:23:45;28.50;53.20
81266;DHT22;70748;52.510;13.410;2023-08-17T15:26:11;28.50;53.80